createdAt,value
2022-11-15T00:03:06.744Z,98821.07
2022-11-15T00:08:47.741Z,98813.81
2022-11-15T00:14:28.436Z,98807.85
2022-11-15T00:20:09.633Z,98805.38
2022-11-15T00:25:57.594Z,98798.85
2022-11-15T00:31:38.416Z,98790.14
2022-11-15T00:37:19.029Z,98785.35
2022-11-15T00:43:00.441Z,98778.81
2022-11-15T00:48:41.238Z,98763.14
2022-11-15T00:54:34.374Z,98757.91
2022-11-15T01:00:15.888Z,98753.97
2022-11-15T01:06:00.890Z,98752.50
2022-11-15T01:11:42.183Z,98750.70
2022-11-15T01:17:23.075Z,98746.80
2022-11-15T01:23:04.175Z,98741.90
2022-11-15T01:28:45.268Z,98733.95
2022-11-15T01:34:26.466Z,98727.11
2022-11-15T01:40:07.944Z,98720.58
2022-11-15T01:45:54.696Z,98716.89
2022-11-15T01:51:35.576Z,98709.64
2022-11-15T01:57:16.673Z,98702.54
2022-11-15T02:02:57.367Z,98695.68
2022-11-15T02:08:38.164Z,98685.54
2022-11-15T02:14:20.966Z,98679.48
2022-11-15T02:20:37.687Z,98672.33
2022-11-15T02:26:40.171Z,98668.77
2022-11-15T02:32:49.358Z,98667.38
2022-11-15T02:38:35.869Z,98663.86
2022-11-15T02:44:26.312Z,98664.60
2022-11-15T02:50:10.609Z,98659.00
2022-11-15T02:55:52.607Z,98654.27
2022-11-15T03:01:43.951Z,98650.11
2022-11-15T03:07:36.275Z,98641.81
2022-11-15T03:13:28.129Z,98636.95
2022-11-15T03:19:18.939Z,98633.61
2022-11-15T03:25:02.367Z,98625.39
2022-11-15T03:30:44.144Z,98621.81
2022-11-15T03:36:26.146Z,98614.36
2022-11-15T03:42:24.200Z,98606.40
2022-11-15T03:48:26.012Z,98597.45
2022-11-15T03:54:07.164Z,98598.48
2022-11-15T03:59:48.391Z,98596.11
2022-11-15T04:05:29.660Z,98585.58
2022-11-15T04:11:10.762Z,98582.56
2022-11-15T04:16:51.552Z,98579.69
2022-11-15T04:22:50.711Z,98579.89
2022-11-15T04:28:31.397Z,98575.79
2022-11-15T04:34:12.205Z,98571.83
2022-11-15T04:39:53.017Z,98566.91
2022-11-15T04:45:34.095Z,98564.73
2022-11-15T04:51:15.101Z,98559.37
2022-11-15T04:56:56.289Z,98556.90
2022-11-15T05:02:55.498Z,98550.14
2022-11-15T05:08:36.268Z,98539.66
2022-11-15T05:14:17.449Z,98528.55
2022-11-15T05:19:58.425Z,98523.92
2022-11-15T05:25:39.857Z,98519.40
2022-11-15T05:31:20.528Z,98513.04
2022-11-15T05:37:01.025Z,98504.35
2022-11-15T05:42:41.719Z,98496.97
2022-11-15T05:48:22.110Z,98490.73
2022-11-15T05:54:03.249Z,98493.64
2022-11-15T05:59:44.604Z,98494.20
2022-11-15T06:05:25.400Z,98499.25
2022-11-15T06:11:07.274Z,98503.52
2022-11-15T06:16:47.696Z,98506.48
2022-11-15T06:22:28.490Z,98508.97
2022-11-15T06:28:09.486Z,98513.23
2022-11-15T06:33:50.722Z,98514.34
2022-11-15T06:39:31.783Z,98515.92
2022-11-15T06:45:12.274Z,98520.27
2022-11-15T06:50:53.696Z,98519.36
2022-11-15T06:56:35.035Z,98519.68
2022-11-15T07:02:17.876Z,98516.00
2022-11-15T07:07:59.708Z,98515.56
2022-11-15T07:13:40.469Z,98512.00
2022-11-15T07:19:20.961Z,98507.50
2022-11-15T07:25:01.538Z,98509.43
2022-11-15T07:30:45.385Z,98515.22
2022-11-15T07:36:26.560Z,98513.76
2022-11-15T07:42:25.623Z,98517.35
2022-11-15T07:48:07.746Z,98517.23
2022-11-15T07:53:48.663Z,98513.92
2022-11-15T07:59:29.237Z,98512.59
2022-11-15T08:05:10.053Z,98503.52
2022-11-15T08:10:50.804Z,98494.45
2022-11-15T08:16:31.843Z,98490.87
2022-11-15T08:22:14.817Z,98488.64
2022-11-15T08:27:58.535Z,98491.30
2022-11-15T08:33:39.406Z,98487.30
2022-11-15T08:39:20.170Z,98486.49
2022-11-15T08:45:00.765Z,98474.27
2022-11-15T08:50:41.445Z,98470.80
2022-11-15T08:56:22.183Z,98470.80
2022-11-15T09:02:03.822Z,98462.51
2022-11-15T09:07:44.806Z,98461.03
2022-11-15T09:13:25.430Z,98458.30
2022-11-15T09:19:11.474Z,98449.98
2022-11-15T09:24:52.437Z,98440.55
2022-11-15T09:30:33.451Z,98440.39
2022-11-15T09:36:14.392Z,98437.21
2022-11-15T09:42:16.861Z,98430.95
2022-11-15T09:48:19.941Z,98412.81
2022-11-15T10:00:46.420Z,98391.68
2022-11-15T10:06:25.706Z,98385.73
2022-11-15T10:11:47.485Z,98378.46
2022-11-15T10:17:28.344Z,98379.55
2022-11-15T10:23:00.876Z,98372.52
2022-11-15T10:28:26.211Z,98369.79
2022-11-15T10:33:48.159Z,98367.04
2022-11-15T10:39:13.447Z,98363.08
2022-11-15T10:44:42.983Z,98361.38
2022-11-15T10:50:27.810Z,98356.09
2022-11-15T10:55:51.417Z,98350.48
2022-11-15T11:01:19.053Z,98344.81
2022-11-15T11:06:51.489Z,98337.59
2022-11-15T11:12:13.325Z,98332.94
2022-11-15T11:18:11.863Z,98331.39
2022-11-15T11:23:45.029Z,98327.10
2022-11-15T11:29:26.060Z,98318.64
2022-11-15T11:35:14.924Z,98309.02
2022-11-15T11:41:00.360Z,98301.23
2022-11-15T11:46:31.439Z,98289.35
2022-11-15T11:51:56.382Z,98286.59
2022-11-15T11:57:30.496Z,98282.43
2022-11-15T12:03:12.537Z,98273.45
2022-11-15T12:08:51.145Z,98264.13
2022-11-15T12:14:26.377Z,98253.43
2022-11-15T12:19:48.563Z,98249.42
2022-11-15T12:25:19.997Z,98246.48
2022-11-15T12:30:53.270Z,98232.82
2022-11-15T12:36:24.019Z,98226.29
2022-11-15T12:41:58.098Z,98218.88
2022-11-15T12:47:25.555Z,98218.02
2022-11-15T12:53:25.814Z,98214.21
2022-11-15T12:58:52.778Z,98199.90
2022-11-15T13:04:20.972Z,98190.08
2022-11-15T13:09:42.569Z,98177.98
2022-11-15T13:15:13.131Z,98178.85
2022-11-15T13:20:35.241Z,98177.48
2022-11-15T13:26:17.673Z,98179.53
2022-11-15T13:31:43.605Z,98175.39
2022-11-15T13:37:12.823Z,98173.01
2022-11-15T13:42:35.522Z,98173.56
2022-11-15T13:47:59.281Z,98165.48
2022-11-15T13:53:21.508Z,98157.04
2022-11-15T13:58:43.349Z,98156.38
2022-11-15T14:04:05.347Z,98153.82
2022-11-15T14:09:34.034Z,98147.80
2022-11-15T14:14:56.086Z,98152.11
2022-11-15T14:20:26.701Z,98146.05
2022-11-15T14:25:56.425Z,98136.89
2022-11-15T14:31:18.494Z,98133.47
2022-11-15T14:36:42.574Z,98131.06
2022-11-15T14:42:06.501Z,98133.15
2022-11-15T14:47:28.193Z,98123.17
2022-11-15T14:52:50.212Z,98115.10
2022-11-15T14:58:12.050Z,98111.69
2022-11-15T15:03:34.172Z,98106.36
2022-11-15T15:08:56.113Z,98096.21
2022-11-15T15:14:17.931Z,98093.86
2022-11-15T15:19:39.630Z,98089.36
2022-11-15T15:25:01.559Z,98080.58
2022-11-15T15:30:24.267Z,98083.35
2022-11-15T15:35:46.196Z,98083.73
2022-11-15T15:41:15.687Z,98077.92
2022-11-15T15:46:37.754Z,98077.98
2022-11-15T15:51:59.391Z,98069.21
2022-11-15T15:57:21.355Z,98075.27
2022-11-15T16:02:43.670Z,98075.08
2022-11-15T16:08:05.834Z,98072.30
2022-11-15T16:13:27.423Z,98070.75
2022-11-15T16:18:49.068Z,98072.66
2022-11-15T16:24:11.090Z,98073.86
2022-11-15T16:29:32.943Z,98073.85
2022-11-15T16:34:56.170Z,98069.06
2022-11-15T16:40:33.587Z,98064.58
2022-11-15T16:45:55.473Z,98062.19
2022-11-15T16:51:18.084Z,98059.09
2022-11-15T16:56:40.785Z,98055.98
2022-11-15T17:02:02.746Z,98053.25
2022-11-15T17:07:25.352Z,98048.09
2022-11-15T17:12:47.270Z,98042.23
2022-11-15T17:18:13.514Z,98041.36
2022-11-15T17:23:36.263Z,98032.25
2022-11-15T17:28:58.079Z,98027.45
2022-11-15T17:34:19.607Z,98025.39
2022-11-15T17:39:41.665Z,98020.23
2022-11-15T17:45:09.322Z,98017.48
2022-11-15T17:50:31.871Z,98008.88
2022-11-15T17:55:54.350Z,97994.63
2022-11-15T18:01:25.082Z,97989.32
2022-11-15T18:06:47.511Z,97975.90
2022-11-15T18:12:09.958Z,97968.50
2022-11-15T18:17:32.105Z,97961.27
2022-11-15T18:22:54.592Z,97953.54
2022-11-15T18:28:16.290Z,97960.73
2022-11-15T18:33:38.166Z,97970.19
2022-11-15T18:39:05.085Z,97973.48
2022-11-15T18:44:29.132Z,97968.00
2022-11-15T18:49:51.014Z,97967.14
2022-11-15T18:55:14.507Z,97963.70
2022-11-15T19:00:36.598Z,97958.71
2022-11-15T19:06:15.995Z,97954.77
2022-11-15T19:11:39.900Z,97957.86
2022-11-15T19:17:01.735Z,97960.60
2022-11-15T19:22:23.618Z,97960.77
2022-11-15T19:27:45.583Z,97954.60
2022-11-15T19:33:07.487Z,97955.27
2022-11-15T19:38:33.495Z,97948.94
2022-11-15T19:43:55.725Z,97944.11
2022-11-15T19:49:17.773Z,97945.14
2022-11-15T19:54:39.954Z,97935.52
2022-11-15T20:00:06.830Z,97927.09
2022-11-15T20:05:29.522Z,97922.12
2022-11-15T20:10:51.249Z,97919.20
2022-11-15T20:16:18.857Z,97915.94
2022-11-15T20:21:40.896Z,97916.98
2022-11-15T20:27:02.389Z,97915.60
2022-11-15T20:32:24.413Z,97917.33
2022-11-15T20:37:46.452Z,97911.83
2022-11-15T20:43:13.116Z,97910.27
2022-11-15T20:48:35.507Z,97907.52
2022-11-15T20:53:58.332Z,97902.88
2022-11-15T20:59:20.254Z,97908.38
2022-11-15T21:04:42.139Z,97907.52
2022-11-15T21:10:23.025Z,97897.23
2022-11-15T21:15:45.072Z,97887.77
2022-11-15T21:21:07.652Z,97881.95
2022-11-15T21:26:29.689Z,97869.90
2022-11-15T21:31:52.711Z,97863.71
2022-11-15T21:37:14.634Z,97858.91
2022-11-15T21:42:37.134Z,97853.06
2022-11-15T21:47:59.183Z,97856.50
2022-11-15T21:53:20.925Z,97851.35
2022-11-15T21:58:42.653Z,97841.56
2022-11-15T22:04:42.610Z,97839.51
2022-11-15T22:10:05.021Z,97829.36
2022-11-15T22:15:27.215Z,97820.77
2022-11-15T22:21:13.608Z,97816.15
2022-11-15T22:26:35.737Z,97806.35
2022-11-15T22:31:57.798Z,97800.86
2022-11-15T22:37:21.167Z,97792.29
2022-11-15T22:42:43.619Z,97788.86
2022-11-15T22:48:05.848Z,97791.27
2022-11-15T22:53:28.981Z,97785.23
2022-11-15T22:58:51.015Z,97773.05
2022-11-15T23:04:13.040Z,97766.86
2022-11-15T23:09:35.071Z,97761.23
2022-11-15T23:14:57.024Z,97755.04
2022-11-15T23:20:41.963Z,97746.45
2022-11-15T23:26:01.693Z,97748.69
2022-11-15T23:31:42.226Z,97743.01
2022-11-15T23:37:05.446Z,97739.58
2022-11-15T23:42:27.692Z,97735.60
2022-11-15T23:47:49.613Z,97728.73
2022-11-15T23:53:11.737Z,97719.83
2022-11-15T23:58:34.547Z,97709.02
